sensor_id;sensor_type;location;lat;lon;timestamp;temperature;humidity
22112;DHT22;11222;50.872;4.312;2023-02-28T00:00:05;2.40;99.90
22112;DHT22;11222;50.872;4.312;2023-02-28T00:02:36;2.50;99.90
22112;DHT22;11222;50.872;4.312;2023-02-28T00:05:03;2.60;99.90
22112;DHT22;11222;50.872;4.312;2023-02-28T00:07:32;2.60;99.90
22112;DHT22;11222;50.872;4.312;2023-02-28T00:09:58;2.60;99.90
22112;DHT22;11222;50.872;4.312;2023-02-28T00:12:24;2.60;99.90
22112;DHT22;11222;50.872;4.312;2023-02-28T00:14:50;2.60;99.90
22112;DHT22;11222;50.872;4.312;2023-02-28T00:17:16;2.50;99.90
22112;DHT22;11222;50.872;4.312;2023-02-28T00:19:43;2.50;99.90
22112;DHT22;11222;50.872;4.312;2023-02-28T00:22:09;2.60;99.90
22112;DHT22;11222;50.872;4.312;2023-02-28T00:24:35;2.50;99.90
22112;DHT22;11222;50.872;4.312;2023-02-28T00:27:00;2.50;99.90
22112;DHT22;11222;50.872;4.312;2023-02-28T00:29:26;2.50;99.90
22112;DHT22;11222;50.872;4.312;2023-02-28T00:31:52;2.50;99.90
22112;DHT22;11222;50.872;4.312;2023-02-28T00:34:21;2.40;99.90
22112;DHT22;11222;50.872;4.312;2023-02-28T00:36:46;2.40;99.90
22112;DHT22;11222;50.872;4.312;2023-02-28T00:39:15;2.30;99.90
22112;DHT22;11222;50.872;4.312;2023-02-28T00:41:41;2.30;99.90
22112;DHT22;11222;50.872;4.312;2023-02-28T00:44:07;2.30;99.90
22112;DHT22;11222;50.872;4.312;2023-02-28T00:46:33;2.30;99.90
22112;DHT22;11222;50.872;4.312;2023-02-28T00:48:58;2.20;99.90
22112;DHT22;11222;50.872;4.312;2023-02-28T00:51:24;2.20;99.90
22112;DHT22;11222;50.872;4.312;2023-02-28T00:53:52;2.20;99.90
22112;DHT22;11222;50.872;4.312;2023-02-28T00:56:18;2.10;99.90
22112;DHT22;11222;50.872;4.312;2023-02-28T00:58:44;2.20;99.90
22112;DHT22;11222;50.872;4.312;2023-02-28T01:01:09;2.10;99.90
22112;DHT22;11222;50.872;4.312;2023-02-28T01:03:35;2.10;99.90
22112;DHT22;11222;50.872;4.312;2023-02-28T01:06:01;2.10;99.90
22112;DHT22;11222;50.872;4.312;2023-02-28T01:08:27;2.10;99.90
22112;DHT22;11222;50.872;4.312;2023-02-28T01:10:53;2.10;99.90
22112;DHT22;11222;50.872;4.312;2023-02-28T01:13:19;2.00;99.90
22112;DHT22;11222;50.872;4.312;2023-02-28T01:15:54;2.10;99.90
22112;DHT22;11222;50.872;4.312;2023-02-28T01:18:21;2.00;99.90
22112;DHT22;11222;50.872;4.312;2023-02-28T01:20:47;2.00;99.90
22112;DHT22;11222;50.872;4.312;2023-02-28T01:23:13;2.00;99.90
22112;DHT22;11222;50.872;4.312;2023-02-28T01:25:39;2.10;99.90
22112;DHT22;11222;50.872;4.312;2023-02-28T01:28:06;2.10;99.90
22112;DHT22;11222;50.872;4.312;2023-02-28T01:30:32;2.00;99.90
22112;DHT22;11222;50.872;4.312;2023-02-28T01:32:58;2.00;99.90
22112;DHT22;11222;50.872;4.312;2023-02-28T01:35:23;2.10;99.90
22112;DHT22;11222;50.872;4.312;2023-02-28T01:37:49;1.90;99.90
22112;DHT22;11222;50.872;4.312;2023-02-28T01:40:15;1.90;99.90
22112;DHT22;11222;50.872;4.312;2023-02-28T01:42:41;1.80;99.90
22112;DHT22;11222;50.872;4.312;2023-02-28T01:45:18;1.80;99.90
22112;DHT22;11222;50.872;4.312;2023-02-28T01:47:45;1.80;99.90
22112;DHT22;11222;50.872;4.312;2023-02-28T01:50:18;1.90;99.90
22112;DHT22;11222;50.872;4.312;2023-02-28T01:52:45;1.90;99.90
22112;DHT22;11222;50.872;4.312;2023-02-28T01:55:13;1.80;99.90
22112;DHT22;11222;50.872;4.312;2023-02-28T01:57:46;1.80;99.90
22112;DHT22;11222;50.872;4.312;2023-02-28T02:00:15;1.70;99.90
22112;DHT22;11222;50.872;4.312;2023-02-28T02:02:46;1.80;99.90
22112;DHT22;11222;50.872;4.312;2023-02-28T02:05:16;1.70;99.90
22112;DHT22;11222;50.872;4.312;2023-02-28T02:07:45;1.70;99.90
22112;DHT22;11222;50.872;4.312;2023-02-28T02:18:43;1.70;99.90
22112;DHT22;11222;50.872;4.312;2023-02-28T02:21:22;1.80;99.90
22112;DHT22;11222;50.872;4.312;2023-02-28T02:24:31;1.80;99.90
22112;DHT22;11222;50.872;4.312;2023-02-28T02:30:08;1.70;99.90
22112;DHT22;11222;50.872;4.312;2023-02-28T02:37:43;1.70;99.90
22112;DHT22;11222;50.872;4.312;2023-02-28T02:43:00;1.70;99.90
22112;DHT22;11222;50.872;4.312;2023-02-28T02:45:48;1.60;99.90
22112;DHT22;11222;50.872;4.312;2023-02-28T02:48:18;1.60;99.90
22112;DHT22;11222;50.872;4.312;2023-02-28T02:50:54;1.50;99.90
22112;DHT22;11222;50.872;4.312;2023-02-28T02:53:25;1.40;99.90
22112;DHT22;11222;50.872;4.312;2023-02-28T02:55:52;1.50;99.90
22112;DHT22;11222;50.872;4.312;2023-02-28T02:58:24;1.60;99.90
22112;DHT22;11222;50.872;4.312;2023-02-28T03:00:53;1.60;99.90
22112;DHT22;11222;50.872;4.312;2023-02-28T03:03:21;1.50;99.90
22112;DHT22;11222;50.872;4.312;2023-02-28T03:05:55;1.50;99.90
22112;DHT22;11222;50.872;4.312;2023-02-28T03:08:20;1.50;99.90
22112;DHT22;11222;50.872;4.312;2023-02-28T03:10:50;1.50;99.90
22112;DHT22;11222;50.872;4.312;2023-02-28T03:26:58;1.50;99.90
22112;DHT22;11222;50.872;4.312;2023-02-28T03:29:43;1.40;99.90
22112;DHT22;11222;50.872;4.312;2023-02-28T03:32:26;1.40;99.90
22112;DHT22;11222;50.872;4.312;2023-02-28T03:35:12;1.30;99.90
22112;DHT22;11222;50.872;4.312;2023-02-28T03:37:42;1.30;99.90
22112;DHT22;11222;50.872;4.312;2023-02-28T03:40:12;1.30;99.90
22112;DHT22;11222;50.872;4.312;2023-02-28T03:42:41;1.30;99.90
22112;DHT22;11222;50.872;4.312;2023-02-28T03:45:18;1.30;99.90
22112;DHT22;11222;50.872;4.312;2023-02-28T03:50:44;1.40;99.90
22112;DHT22;11222;50.872;4.312;2023-02-28T03:53:21;1.30;99.90
22112;DHT22;11222;50.872;4.312;2023-02-28T03:56:01;1.30;99.90
22112;DHT22;11222;50.872;4.312;2023-02-28T03:59:12;1.20;99.90
22112;DHT22;11222;50.872;4.312;2023-02-28T04:03:52;1.30;99.90
22112;DHT22;11222;50.872;4.312;2023-02-28T04:06:20;1.30;99.90
22112;DHT22;11222;50.872;4.312;2023-02-28T04:08:47;1.30;99.90
22112;DHT22;11222;50.872;4.312;2023-02-28T04:11:43;1.30;99.90
22112;DHT22;11222;50.872;4.312;2023-02-28T04:14:08;1.20;99.90
22112;DHT22;11222;50.872;4.312;2023-02-28T04:16:37;1.30;99.90
22112;DHT22;11222;50.872;4.312;2023-02-28T04:19:04;1.20;99.90
22112;DHT22;11222;50.872;4.312;2023-02-28T04:21:42;1.20;99.90
22112;DHT22;11222;50.872;4.312;2023-02-28T04:24:10;1.20;99.90
22112;DHT22;11222;50.872;4.312;2023-02-28T04:26:41;1.40;99.90
22112;DHT22;11222;50.872;4.312;2023-02-28T04:29:07;1.30;99.90
22112;DHT22;11222;50.872;4.312;2023-02-28T04:31:33;1.30;99.90
22112;DHT22;11222;50.872;4.312;2023-02-28T04:33:59;1.30;99.90
22112;DHT22;11222;50.872;4.312;2023-02-28T04:36:26;1.10;99.90
22112;DHT22;11222;50.872;4.312;2023-02-28T04:38:51;1.10;99.90
22112;DHT22;11222;50.872;4.312;2023-02-28T04:41:19;1.00;99.90
22112;DHT22;11222;50.872;4.312;2023-02-28T04:43:45;0.90;99.90
22112;DHT22;11222;50.872;4.312;2023-02-28T04:46:10;0.90;99.90
22112;DHT22;11222;50.872;4.312;2023-02-28T04:48:38;0.80;99.90
22112;DHT22;11222;50.872;4.312;2023-02-28T04:51:07;0.80;99.90
22112;DHT22;11222;50.872;4.312;2023-02-28T04:53:33;0.80;99.90
22112;DHT22;11222;50.872;4.312;2023-02-28T04:56:00;0.90;99.90
22112;DHT22;11222;50.872;4.312;2023-02-28T04:58:26;1.00;99.90
22112;DHT22;11222;50.872;4.312;2023-02-28T05:00:52;1.10;99.90
22112;DHT22;11222;50.872;4.312;2023-02-28T05:03:19;1.10;99.90
22112;DHT22;11222;50.872;4.312;2023-02-28T05:05:46;1.20;99.90
22112;DHT22;11222;50.872;4.312;2023-02-28T05:08:12;1.20;99.90
22112;DHT22;11222;50.872;4.312;2023-02-28T05:10:37;1.30;99.90
22112;DHT22;11222;50.872;4.312;2023-02-28T05:13:03;1.40;99.90
22112;DHT22;11222;50.872;4.312;2023-02-28T05:15:29;1.50;99.90
22112;DHT22;11222;50.872;4.312;2023-02-28T05:17:54;1.40;99.90
22112;DHT22;11222;50.872;4.312;2023-02-28T05:20:20;1.40;99.90
22112;DHT22;11222;50.872;4.312;2023-02-28T05:22:46;1.40;99.90
22112;DHT22;11222;50.872;4.312;2023-02-28T05:25:17;1.40;99.90
22112;DHT22;11222;50.872;4.312;2023-02-28T05:27:44;1.30;99.90
22112;DHT22;11222;50.872;4.312;2023-02-28T05:30:10;1.40;99.90
22112;DHT22;11222;50.872;4.312;2023-02-28T05:32:40;1.40;99.90
22112;DHT22;11222;50.872;4.312;2023-02-28T05:35:12;1.50;99.90
22112;DHT22;11222;50.872;4.312;2023-02-28T05:37:38;1.70;99.90
22112;DHT22;11222;50.872;4.312;2023-02-28T05:40:05;1.70;99.90
22112;DHT22;11222;50.872;4.312;2023-02-28T05:42:33;1.60;99.90
22112;DHT22;11222;50.872;4.312;2023-02-28T05:44:58;1.70;99.90
22112;DHT22;11222;50.872;4.312;2023-02-28T05:47:24;1.60;99.90
22112;DHT22;11222;50.872;4.312;2023-02-28T05:49:50;1.50;99.90
22112;DHT22;11222;50.872;4.312;2023-02-28T05:52:16;1.60;99.90
22112;DHT22;11222;50.872;4.312;2023-02-28T05:54:41;1.60;99.90
22112;DHT22;11222;50.872;4.312;2023-02-28T05:57:07;1.60;99.90
22112;DHT22;11222;50.872;4.312;2023-02-28T05:59:33;1.50;99.90
22112;DHT22;11222;50.872;4.312;2023-02-28T06:01:58;1.60;99.90
22112;DHT22;11222;50.872;4.312;2023-02-28T06:04:24;1.50;99.90
22112;DHT22;11222;50.872;4.312;2023-02-28T06:06:50;1.50;99.90
22112;DHT22;11222;50.872;4.312;2023-02-28T06:09:17;1.60;99.90
22112;DHT22;11222;50.872;4.312;2023-02-28T06:11:43;1.50;99.90
22112;DHT22;11222;50.872;4.312;2023-02-28T06:14:27;1.50;99.90
22112;DHT22;11222;50.872;4.312;2023-02-28T06:16:53;1.50;99.90
22112;DHT22;11222;50.872;4.312;2023-02-28T06:19:18;1.60;99.90
22112;DHT22;11222;50.872;4.312;2023-02-28T06:21:44;1.70;99.90
22112;DHT22;11222;50.872;4.312;2023-02-28T06:24:10;1.80;99.90
22112;DHT22;11222;50.872;4.312;2023-02-28T06:26:36;1.80;99.90
22112;DHT22;11222;50.872;4.312;2023-02-28T06:29:02;1.80;99.90
22112;DHT22;11222;50.872;4.312;2023-02-28T06:31:28;1.70;99.90
22112;DHT22;11222;50.872;4.312;2023-02-28T06:33:55;1.80;99.90
22112;DHT22;11222;50.872;4.312;2023-02-28T06:36:21;1.80;99.90
22112;DHT22;11222;50.872;4.312;2023-02-28T06:38:47;1.90;99.90
22112;DHT22;11222;50.872;4.312;2023-02-28T06:41:17;1.90;99.90
22112;DHT22;11222;50.872;4.312;2023-02-28T06:43:43;2.00;99.90
22112;DHT22;11222;50.872;4.312;2023-02-28T06:46:11;2.00;99.90
22112;DHT22;11222;50.872;4.312;2023-02-28T06:48:39;2.10;99.90
22112;DHT22;11222;50.872;4.312;2023-02-28T06:51:10;2.00;99.90
22112;DHT22;11222;50.872;4.312;2023-02-28T06:53:37;2.00;99.90
22112;DHT22;11222;50.872;4.312;2023-02-28T06:56:08;2.00;99.90
22112;DHT22;11222;50.872;4.312;2023-02-28T06:58:35;2.00;99.90
22112;DHT22;11222;50.872;4.312;2023-02-28T07:01:02;2.00;99.90
22112;DHT22;11222;50.872;4.312;2023-02-28T07:03:27;2.00;99.90
22112;DHT22;11222;50.872;4.312;2023-02-28T07:05:53;2.00;99.90
22112;DHT22;11222;50.872;4.312;2023-02-28T07:08:25;2.10;99.90
22112;DHT22;11222;50.872;4.312;2023-02-28T07:10:53;2.10;99.90
22112;DHT22;11222;50.872;4.312;2023-02-28T07:13:19;2.10;99.90
22112;DHT22;11222;50.872;4.312;2023-02-28T07:18:21;2.40;99.90
22112;DHT22;11222;50.872;4.312;2023-02-28T07:20:46;2.40;99.90
22112;DHT22;11222;50.872;4.312;2023-02-28T07:23:12;2.40;99.90
22112;DHT22;11222;50.872;4.312;2023-02-28T07:25:38;2.30;99.90
22112;DHT22;11222;50.872;4.312;2023-02-28T07:28:04;2.20;99.90
22112;DHT22;11222;50.872;4.312;2023-02-28T07:30:30;2.30;99.90
22112;DHT22;11222;50.872;4.312;2023-02-28T07:32:56;2.30;99.90
22112;DHT22;11222;50.872;4.312;2023-02-28T07:35:22;2.30;99.90
22112;DHT22;11222;50.872;4.312;2023-02-28T07:37:48;2.50;99.90
22112;DHT22;11222;50.872;4.312;2023-02-28T07:40:14;2.70;99.90
22112;DHT22;11222;50.872;4.312;2023-02-28T07:42:41;2.70;99.90
22112;DHT22;11222;50.872;4.312;2023-02-28T07:45:08;2.80;99.90
22112;DHT22;11222;50.872;4.312;2023-02-28T07:47:34;2.70;99.90
22112;DHT22;11222;50.872;4.312;2023-02-28T07:49:59;2.80;99.90
22112;DHT22;11222;50.872;4.312;2023-02-28T07:52:25;2.90;99.90
22112;DHT22;11222;50.872;4.312;2023-02-28T07:54:51;2.80;99.90
22112;DHT22;11222;50.872;4.312;2023-02-28T07:57:17;2.70;99.90
22112;DHT22;11222;50.872;4.312;2023-02-28T07:59:43;2.70;99.90
22112;DHT22;11222;50.872;4.312;2023-02-28T08:02:14;2.60;99.90
22112;DHT22;11222;50.872;4.312;2023-02-28T08:04:40;2.60;99.90
22112;DHT22;11222;50.872;4.312;2023-02-28T08:07:05;2.70;99.90
22112;DHT22;11222;50.872;4.312;2023-02-28T08:09:31;2.80;99.90
22112;DHT22;11222;50.872;4.312;2023-02-28T08:11:57;2.80;99.90
22112;DHT22;11222;50.872;4.312;2023-02-28T08:14:23;2.90;99.90
22112;DHT22;11222;50.872;4.312;2023-02-28T08:16:49;3.00;99.90
22112;DHT22;11222;50.872;4.312;2023-02-28T08:19:14;3.00;99.90
22112;DHT22;11222;50.872;4.312;2023-02-28T08:21:40;3.00;99.90
22112;DHT22;11222;50.872;4.312;2023-02-28T08:24:06;3.00;99.90
22112;DHT22;11222;50.872;4.312;2023-02-28T08:26:32;3.10;99.90
22112;DHT22;11222;50.872;4.312;2023-02-28T08:28:58;3.20;99.90
22112;DHT22;11222;50.872;4.312;2023-02-28T08:31:24;3.20;99.90
22112;DHT22;11222;50.872;4.312;2023-02-28T08:33:49;3.30;99.90
22112;DHT22;11222;50.872;4.312;2023-02-28T08:36:18;3.30;99.90
22112;DHT22;11222;50.872;4.312;2023-02-28T08:38:44;3.30;99.90
22112;DHT22;11222;50.872;4.312;2023-02-28T08:41:11;3.40;99.90
22112;DHT22;11222;50.872;4.312;2023-02-28T08:43:38;3.30;99.90
22112;DHT22;11222;50.872;4.312;2023-02-28T08:46:04;3.30;99.90
22112;DHT22;11222;50.872;4.312;2023-02-28T08:48:32;3.30;99.90
22112;DHT22;11222;50.872;4.312;2023-02-28T08:51:03;3.30;99.90
22112;DHT22;11222;50.872;4.312;2023-02-28T08:53:29;3.10;99.90
22112;DHT22;11222;50.872;4.312;2023-02-28T08:56:16;3.00;99.90
22112;DHT22;11222;50.872;4.312;2023-02-28T08:58:43;3.00;99.90
22112;DHT22;11222;50.872;4.312;2023-02-28T09:01:14;3.10;99.90
22112;DHT22;11222;50.872;4.312;2023-02-28T09:03:40;3.10;99.90
22112;DHT22;11222;50.872;4.312;2023-02-28T09:06:08;3.10;99.90
22112;DHT22;11222;50.872;4.312;2023-02-28T09:08:34;3.00;99.90
22112;DHT22;11222;50.872;4.312;2023-02-28T09:11:00;3.10;99.90
22112;DHT22;11222;50.872;4.312;2023-02-28T09:13:27;3.20;99.90
22112;DHT22;11222;50.872;4.312;2023-02-28T09:15:57;3.30;99.90
22112;DHT22;11222;50.872;4.312;2023-02-28T09:18:23;3.30;99.90
22112;DHT22;11222;50.872;4.312;2023-02-28T09:20:48;3.20;99.90
22112;DHT22;11222;50.872;4.312;2023-02-28T09:23:14;3.10;99.90
22112;DHT22;11222;50.872;4.312;2023-02-28T09:25:53;3.20;99.90
22112;DHT22;11222;50.872;4.312;2023-02-28T09:28:20;3.20;99.90
22112;DHT22;11222;50.872;4.312;2023-02-28T09:30:51;3.20;99.90
22112;DHT22;11222;50.872;4.312;2023-02-28T09:33:18;3.30;99.90
22112;DHT22;11222;50.872;4.312;2023-02-28T09:35:47;3.30;99.90
22112;DHT22;11222;50.872;4.312;2023-02-28T09:38:13;3.30;99.90
22112;DHT22;11222;50.872;4.312;2023-02-28T09:43:14;3.30;99.90
22112;DHT22;11222;50.872;4.312;2023-02-28T09:45:42;3.20;99.90
22112;DHT22;11222;50.872;4.312;2023-02-28T09:48:23;3.30;99.90
22112;DHT22;11222;50.872;4.312;2023-02-28T09:50:59;3.30;99.90
22112;DHT22;11222;50.872;4.312;2023-02-28T09:55:58;3.30;99.90
22112;DHT22;11222;50.872;4.312;2023-02-28T09:58:36;3.30;99.90
22112;DHT22;11222;50.872;4.312;2023-02-28T10:01:18;3.40;99.90
22112;DHT22;11222;50.872;4.312;2023-02-28T10:03:58;3.50;99.90
22112;DHT22;11222;50.872;4.312;2023-02-28T10:06:30;3.60;99.90
22112;DHT22;11222;50.872;4.312;2023-02-28T10:09:02;3.60;99.90
22112;DHT22;11222;50.872;4.312;2023-02-28T10:11:30;3.70;99.90
22112;DHT22;11222;50.872;4.312;2023-02-28T10:14:05;3.70;99.90
22112;DHT22;11222;50.872;4.312;2023-02-28T10:19:11;4.00;99.90
22112;DHT22;11222;50.872;4.312;2023-02-28T10:22:15;4.00;99.90
22112;DHT22;11222;50.872;4.312;2023-02-28T10:27:14;4.10;99.90
22112;DHT22;11222;50.872;4.312;2023-02-28T10:29:42;4.20;99.90
22112;DHT22;11222;50.872;4.312;2023-02-28T10:32:12;4.40;99.90
22112;DHT22;11222;50.872;4.312;2023-02-28T10:34:39;4.70;99.90
22112;DHT22;11222;50.872;4.312;2023-02-28T10:37:05;5.10;99.90
22112;DHT22;11222;50.872;4.312;2023-02-28T10:39:46;5.60;99.90
22112;DHT22;11222;50.872;4.312;2023-02-28T10:42:28;5.80;99.90
22112;DHT22;11222;50.872;4.312;2023-02-28T10:50:44;6.50;99.90
22112;DHT22;11222;50.872;4.312;2023-02-28T10:58:27;6.90;99.90
22112;DHT22;11222;50.872;4.312;2023-02-28T11:00:54;7.40;99.90
22112;DHT22;11222;50.872;4.312;2023-02-28T11:03:34;8.00;99.90
22112;DHT22;11222;50.872;4.312;2023-02-28T11:08:48;7.60;98.60
22112;DHT22;11222;50.872;4.312;2023-02-28T11:11:16;7.10;99.60
22112;DHT22;11222;50.872;4.312;2023-02-28T11:13:44;7.30;99.10
22112;DHT22;11222;50.872;4.312;2023-02-28T11:16:12;8.00;98.30
22112;DHT22;11222;50.872;4.312;2023-02-28T11:21:24;8.60;95.90
22112;DHT22;11222;50.872;4.312;2023-02-28T11:24:04;9.30;96.10
22112;DHT22;11222;50.872;4.312;2023-02-28T11:26:58;9.30;94.60
22112;DHT22;11222;50.872;4.312;2023-02-28T11:29:31;9.50;92.50
22112;DHT22;11222;50.872;4.312;2023-02-28T11:34:35;10.20;92.60
22112;DHT22;11222;50.872;4.312;2023-02-28T11:37:02;10.10;91.70
22112;DHT22;11222;50.872;4.312;2023-02-28T11:39:32;9.20;92.40
22112;DHT22;11222;50.872;4.312;2023-02-28T11:52:45;8.70;93.10
22112;DHT22;11222;50.872;4.312;2023-02-28T12:06:45;8.50;90.80
22112;DHT22;11222;50.872;4.312;2023-02-28T12:28:14;7.30;94.10
22112;DHT22;11222;50.872;4.312;2023-02-28T12:30:53;6.70;94.20
22112;DHT22;11222;50.872;4.312;2023-02-28T12:33:22;7.20;94.10
22112;DHT22;11222;50.872;4.312;2023-02-28T12:35:57;7.30;93.30
22112;DHT22;11222;50.872;4.312;2023-02-28T12:41:02;6.60;94.10
22112;DHT22;11222;50.872;4.312;2023-02-28T12:43:35;6.30;94.90
22112;DHT22;11222;50.872;4.312;2023-02-28T12:46:17;6.20;95.00
22112;DHT22;11222;50.872;4.312;2023-02-28T12:48:50;6.20;94.50
22112;DHT22;11222;50.872;4.312;2023-02-28T12:51:18;6.00;94.40
22112;DHT22;11222;50.872;4.312;2023-02-28T12:57:48;5.90;94.70
22112;DHT22;11222;50.872;4.312;2023-02-28T12:59:57;5.90;94.50
22112;DHT22;11222;50.872;4.312;2023-02-28T13:10:47;6.00;94.70
22112;DHT22;11222;50.872;4.312;2023-02-28T13:13:21;6.10;93.90
22112;DHT22;11222;50.872;4.312;2023-02-28T13:16:05;5.90;94.10
22112;DHT22;11222;50.872;4.312;2023-02-28T13:21:03;6.10;94.30
22112;DHT22;11222;50.872;4.312;2023-02-28T13:26:12;5.90;94.20
22112;DHT22;11222;50.872;4.312;2023-02-28T13:29:00;5.70;94.00
22112;DHT22;11222;50.872;4.312;2023-02-28T13:31:26;5.60;93.80
22112;DHT22;11222;50.872;4.312;2023-02-28T13:36:28;5.70;93.70
22112;DHT22;11222;50.872;4.312;2023-02-28T13:47:40;5.80;94.60
22112;DHT22;11222;50.872;4.312;2023-02-28T13:50:34;5.60;94.20
22112;DHT22;11222;50.872;4.312;2023-02-28T14:01:12;5.60;93.80
22112;DHT22;11222;50.872;4.312;2023-02-28T14:06:51;5.60;94.20
22112;DHT22;11222;50.872;4.312;2023-02-28T14:12:17;5.50;94.70
22112;DHT22;11222;50.872;4.312;2023-02-28T14:17:14;5.60;94.40
22112;DHT22;11222;50.872;4.312;2023-02-28T14:19:44;5.60;94.50
22112;DHT22;11222;50.872;4.312;2023-02-28T14:28:26;5.60;94.80
22112;DHT22;11222;50.872;4.312;2023-02-28T14:31:10;5.60;95.00
22112;DHT22;11222;50.872;4.312;2023-02-28T14:36:42;5.80;95.30
22112;DHT22;11222;50.872;4.312;2023-02-28T14:39:18;5.80;95.40
22112;DHT22;11222;50.872;4.312;2023-02-28T14:41:46;5.80;95.20
22112;DHT22;11222;50.872;4.312;2023-02-28T14:46:41;5.70;94.80
22112;DHT22;11222;50.872;4.312;2023-02-28T14:49:29;5.70;94.70
22112;DHT22;11222;50.872;4.312;2023-02-28T14:52:22;5.50;94.70
22112;DHT22;11222;50.872;4.312;2023-02-28T14:55:01;5.50;95.10
22112;DHT22;11222;50.872;4.312;2023-02-28T14:57:40;5.60;95.00
22112;DHT22;11222;50.872;4.312;2023-02-28T15:02:39;5.80;95.30
22112;DHT22;11222;50.872;4.312;2023-02-28T15:07:47;5.60;95.10
22112;DHT22;11222;50.872;4.312;2023-02-28T15:10:20;5.50;95.30
22112;DHT22;11222;50.872;4.312;2023-02-28T15:12:56;5.50;95.60
22112;DHT22;11222;50.872;4.312;2023-02-28T15:18:03;5.60;96.10
22112;DHT22;11222;50.872;4.312;2023-02-28T15:20:32;5.60;96.10
22112;DHT22;11222;50.872;4.312;2023-02-28T15:22:58;5.70;96.20
22112;DHT22;11222;50.872;4.312;2023-02-28T15:25:25;5.70;96.30
22112;DHT22;11222;50.872;4.312;2023-02-28T15:27:56;5.70;96.60
22112;DHT22;11222;50.872;4.312;2023-02-28T15:30:31;5.70;96.00
22112;DHT22;11222;50.872;4.312;2023-02-28T15:35:37;5.50;97.00
22112;DHT22;11222;50.872;4.312;2023-02-28T15:40:53;5.50;97.10
22112;DHT22;11222;50.872;4.312;2023-02-28T15:43:29;5.50;96.90
22112;DHT22;11222;50.872;4.312;2023-02-28T15:46:08;5.60;97.30
22112;DHT22;11222;50.872;4.312;2023-02-28T15:48:51;5.50;96.80
22112;DHT22;11222;50.872;4.312;2023-02-28T15:51:33;5.40;97.50
22112;DHT22;11222;50.872;4.312;2023-02-28T15:54:07;5.50;97.60
22112;DHT22;11222;50.872;4.312;2023-02-28T15:56:43;5.50;97.70
22112;DHT22;11222;50.872;4.312;2023-02-28T15:59:15;5.50;97.60
22112;DHT22;11222;50.872;4.312;2023-02-28T16:01:41;5.50;97.80
22112;DHT22;11222;50.872;4.312;2023-02-28T16:04:18;5.40;97.80
22112;DHT22;11222;50.872;4.312;2023-02-28T16:07:00;5.50;98.10
22112;DHT22;11222;50.872;4.312;2023-02-28T16:09:26;5.40;97.80
22112;DHT22;11222;50.872;4.312;2023-02-28T16:11:54;5.40;98.20
22112;DHT22;11222;50.872;4.312;2023-02-28T16:14:25;5.40;98.40
22112;DHT22;11222;50.872;4.312;2023-02-28T16:17:04;5.40;98.20
22112;DHT22;11222;50.872;4.312;2023-02-28T16:19:31;5.40;98.30
22112;DHT22;11222;50.872;4.312;2023-02-28T16:21:57;5.40;98.20
22112;DHT22;11222;50.872;4.312;2023-02-28T16:24:23;5.40;98.50
22112;DHT22;11222;50.872;4.312;2023-02-28T16:26:53;5.30;98.60
22112;DHT22;11222;50.872;4.312;2023-02-28T16:29:31;5.30;98.90
22112;DHT22;11222;50.872;4.312;2023-02-28T16:31:58;5.20;98.60
22112;DHT22;11222;50.872;4.312;2023-02-28T16:34:24;5.10;99.10
22112;DHT22;11222;50.872;4.312;2023-02-28T16:36:50;5.20;99.10
22112;DHT22;11222;50.872;4.312;2023-02-28T16:39:16;5.10;99.20
22112;DHT22;11222;50.872;4.312;2023-02-28T16:41:43;5.10;99.30
22112;DHT22;11222;50.872;4.312;2023-02-28T16:44:13;5.00;99.50
22112;DHT22;11222;50.872;4.312;2023-02-28T16:46:39;5.10;99.60
22112;DHT22;11222;50.872;4.312;2023-02-28T16:49:08;5.10;99.50
22112;DHT22;11222;50.872;4.312;2023-02-28T16:51:35;5.10;99.70
22112;DHT22;11222;50.872;4.312;2023-02-28T16:54:01;5.00;99.90
22112;DHT22;11222;50.872;4.312;2023-02-28T16:56:27;5.00;99.90
22112;DHT22;11222;50.872;4.312;2023-02-28T16:58:55;5.00;99.90
22112;DHT22;11222;50.872;4.312;2023-02-28T17:01:24;5.00;99.90
22112;DHT22;11222;50.872;4.312;2023-02-28T17:03:50;5.00;99.90
22112;DHT22;11222;50.872;4.312;2023-02-28T17:06:24;4.90;99.90
22112;DHT22;11222;50.872;4.312;2023-02-28T17:08:53;4.90;99.90
22112;DHT22;11222;50.872;4.312;2023-02-28T17:11:20;4.90;99.90
22112;DHT22;11222;50.872;4.312;2023-02-28T17:13:46;4.90;99.90
22112;DHT22;11222;50.872;4.312;2023-02-28T17:16:32;4.80;99.90
22112;DHT22;11222;50.872;4.312;2023-02-28T17:19:02;4.80;99.90
22112;DHT22;11222;50.872;4.312;2023-02-28T17:21:29;4.80;99.90
22112;DHT22;11222;50.872;4.312;2023-02-28T17:23:55;4.80;99.90
22112;DHT22;11222;50.872;4.312;2023-02-28T17:26:21;4.80;99.90
22112;DHT22;11222;50.872;4.312;2023-02-28T17:28:51;4.80;99.90
22112;DHT22;11222;50.872;4.312;2023-02-28T17:31:17;4.70;99.90
22112;DHT22;11222;50.872;4.312;2023-02-28T17:33:44;4.70;99.90
22112;DHT22;11222;50.872;4.312;2023-02-28T17:36:14;4.70;99.90
22112;DHT22;11222;50.872;4.312;2023-02-28T17:38:40;4.70;99.90
22112;DHT22;11222;50.872;4.312;2023-02-28T17:41:07;4.70;99.90
22112;DHT22;11222;50.872;4.312;2023-02-28T17:43:34;4.60;99.90
22112;DHT22;11222;50.872;4.312;2023-02-28T17:46:00;4.60;99.90
22112;DHT22;11222;50.872;4.312;2023-02-28T17:48:26;4.60;99.90
22112;DHT22;11222;50.872;4.312;2023-02-28T17:50:52;4.60;99.90
22112;DHT22;11222;50.872;4.312;2023-02-28T17:53:17;4.60;99.90
22112;DHT22;11222;50.872;4.312;2023-02-28T17:55:43;4.60;99.90
22112;DHT22;11222;50.872;4.312;2023-02-28T17:58:10;4.60;99.90
22112;DHT22;11222;50.872;4.312;2023-02-28T18:00:38;4.60;99.90
22112;DHT22;11222;50.872;4.312;2023-02-28T18:03:05;4.50;99.90
22112;DHT22;11222;50.872;4.312;2023-02-28T18:05:31;4.50;99.90
22112;DHT22;11222;50.872;4.312;2023-02-28T18:07:57;4.50;99.90
22112;DHT22;11222;50.872;4.312;2023-02-28T18:10:23;4.50;99.90
22112;DHT22;11222;50.872;4.312;2023-02-28T18:12:51;4.60;99.90
22112;DHT22;11222;50.872;4.312;2023-02-28T18:15:18;4.60;99.90
22112;DHT22;11222;50.872;4.312;2023-02-28T18:17:49;4.60;99.90
22112;DHT22;11222;50.872;4.312;2023-02-28T18:20:14;4.60;99.90
22112;DHT22;11222;50.872;4.312;2023-02-28T18:22:41;4.70;99.90
22112;DHT22;11222;50.872;4.312;2023-02-28T18:25:08;4.70;99.90
22112;DHT22;11222;50.872;4.312;2023-02-28T18:27:36;4.60;99.90
22112;DHT22;11222;50.872;4.312;2023-02-28T18:30:03;4.50;99.90
22112;DHT22;11222;50.872;4.312;2023-02-28T18:32:29;4.50;99.90
22112;DHT22;11222;50.872;4.312;2023-02-28T18:34:55;4.40;99.90
22112;DHT22;11222;50.872;4.312;2023-02-28T18:37:21;4.40;99.90
22112;DHT22;11222;50.872;4.312;2023-02-28T18:39:47;4.40;99.90
22112;DHT22;11222;50.872;4.312;2023-02-28T18:42:12;4.40;99.90
22112;DHT22;11222;50.872;4.312;2023-02-28T18:44:38;4.30;99.90
22112;DHT22;11222;50.872;4.312;2023-02-28T18:47:04;4.40;99.90
22112;DHT22;11222;50.872;4.312;2023-02-28T18:49:30;4.40;99.90
22112;DHT22;11222;50.872;4.312;2023-02-28T18:51:58;4.30;99.90
22112;DHT22;11222;50.872;4.312;2023-02-28T18:54:24;4.40;99.90
22112;DHT22;11222;50.872;4.312;2023-02-28T18:56:50;4.40;99.90
22112;DHT22;11222;50.872;4.312;2023-02-28T18:59:15;4.40;99.90
22112;DHT22;11222;50.872;4.312;2023-02-28T19:01:41;4.30;99.90